sensor_id;sensor_type;location;lat;lon;timestamp;P1;durP1;ratioP1;P2;durP2;ratioP2
73550;SDS011;61816;53.582;10.096;2023-07-13T00:02:14;9.45;;;3.92;;
73550;SDS011;61816;53.582;10.096;2023-07-13T00:04:40;13.20;;;4.57;;
73550;SDS011;61816;53.582;10.096;2023-07-13T00:07:06;20.13;;;4.63;;
73550;SDS011;61816;53.582;10.096;2023-07-13T00:09:32;13.95;;;5.05;;
73550;SDS011;61816;53.582;10.096;2023-07-13T00:11:58;16.10;;;5.38;;
73550;SDS011;61816;53.582;10.096;2023-07-13T00:14:24;13.15;;;4.35;;
73550;SDS011;61816;53.582;10.096;2023-07-13T00:16:51;13.80;;;4.35;;
73550;SDS011;61816;53.582;10.096;2023-07-13T00:19:16;9.48;;;5.00;;
73550;SDS011;61816;53.582;10.096;2023-07-13T00:21:42;15.48;;;5.03;;
73550;SDS011;61816;53.582;10.096;2023-07-13T00:24:08;10.73;;;3.85;;
73550;SDS011;61816;53.582;10.096;2023-07-13T00:26:48;17.35;;;4.57;;
73550;SDS011;61816;53.582;10.096;2023-07-13T00:29:13;8.85;;;4.35;;
73550;SDS011;61816;53.582;10.096;2023-07-13T00:31:39;18.88;;;5.05;;
73550;SDS011;61816;53.582;10.096;2023-07-13T00:34:05;23.02;;;4.93;;
73550;SDS011;61816;53.582;10.096;2023-07-13T00:36:31;10.77;;;4.00;;
73550;SDS011;61816;53.582;10.096;2023-07-13T00:38:56;13.65;;;4.18;;
73550;SDS011;61816;53.582;10.096;2023-07-13T00:41:21;9.32;;;4.18;;
73550;SDS011;61816;53.582;10.096;2023-07-13T00:43:47;17.73;;;5.25;;
73550;SDS011;61816;53.582;10.096;2023-07-13T00:46:18;10.68;;;3.80;;
73550;SDS011;61816;53.582;10.096;2023-07-13T00:48:49;10.48;;;4.88;;
73550;SDS011;61816;53.582;10.096;2023-07-13T00:51:19;19.02;;;5.93;;
73550;SDS011;61816;53.582;10.096;2023-07-13T00:53:49;16.38;;;5.03;;
73550;SDS011;61816;53.582;10.096;2023-07-13T00:56:16;17.00;;;4.43;;
73550;SDS011;61816;53.582;10.096;2023-07-13T00:58:41;15.82;;;5.13;;
73550;SDS011;61816;53.582;10.096;2023-07-13T01:01:07;13.70;;;5.55;;
73550;SDS011;61816;53.582;10.096;2023-07-13T01:03:32;12.18;;;4.40;;
73550;SDS011;61816;53.582;10.096;2023-07-13T01:06:00;9.48;;;4.07;;
73550;SDS011;61816;53.582;10.096;2023-07-13T01:08:25;11.45;;;4.68;;
73550;SDS011;61816;53.582;10.096;2023-07-13T01:10:51;15.50;;;4.93;;
73550;SDS011;61816;53.582;10.096;2023-07-13T01:13:18;12.90;;;4.05;;
73550;SDS011;61816;53.582;10.096;2023-07-13T01:15:45;11.07;;;4.47;;
73550;SDS011;61816;53.582;10.096;2023-07-13T01:18:14;7.68;;;3.80;;
73550;SDS011;61816;53.582;10.096;2023-07-13T01:20:50;18.92;;;5.53;;
73550;SDS011;61816;53.582;10.096;2023-07-13T01:23:23;11.05;;;4.72;;
73550;SDS011;61816;53.582;10.096;2023-07-13T01:25:50;13.02;;;4.88;;
73550;SDS011;61816;53.582;10.096;2023-07-13T01:28:16;19.55;;;5.38;;
73550;SDS011;61816;53.582;10.096;2023-07-13T01:30:42;17.02;;;5.25;;
73550;SDS011;61816;53.582;10.096;2023-07-13T01:33:10;11.82;;;5.00;;
73550;SDS011;61816;53.582;10.096;2023-07-13T01:35:37;13.25;;;5.72;;
73550;SDS011;61816;53.582;10.096;2023-07-13T01:38:03;18.17;;;5.82;;
73550;SDS011;61816;53.582;10.096;2023-07-13T01:40:29;22.33;;;6.25;;
73550;SDS011;61816;53.582;10.096;2023-07-13T01:42:55;19.95;;;5.75;;
73550;SDS011;61816;53.582;10.096;2023-07-13T01:45:20;21.60;;;5.53;;
73550;SDS011;61816;53.582;10.096;2023-07-13T01:47:46;11.98;;;4.95;;
73550;SDS011;61816;53.582;10.096;2023-07-13T01:50:11;21.50;;;6.38;;
73550;SDS011;61816;53.582;10.096;2023-07-13T01:52:36;14.80;;;6.43;;
73550;SDS011;61816;53.582;10.096;2023-07-13T01:55:02;18.88;;;6.15;;
73550;SDS011;61816;53.582;10.096;2023-07-13T01:57:27;13.43;;;6.55;;
73550;SDS011;61816;53.582;10.096;2023-07-13T01:59:53;22.75;;;6.68;;
73550;SDS011;61816;53.582;10.096;2023-07-13T02:02:18;17.95;;;6.85;;
73550;SDS011;61816;53.582;10.096;2023-07-13T02:04:44;26.88;;;7.13;;
73550;SDS011;61816;53.582;10.096;2023-07-13T02:07:10;15.13;;;6.68;;
73550;SDS011;61816;53.582;10.096;2023-07-13T02:09:35;18.45;;;6.90;;
73550;SDS011;61816;53.582;10.096;2023-07-13T02:12:00;18.20;;;6.82;;
73550;SDS011;61816;53.582;10.096;2023-07-13T02:14:26;14.32;;;7.28;;
73550;SDS011;61816;53.582;10.096;2023-07-13T02:16:51;17.92;;;8.85;;
73550;SDS011;61816;53.582;10.096;2023-07-13T02:19:17;16.50;;;8.20;;
73550;SDS011;61816;53.582;10.096;2023-07-13T02:21:42;18.92;;;8.60;;
73550;SDS011;61816;53.582;10.096;2023-07-13T02:24:08;14.85;;;7.35;;
73550;SDS011;61816;53.582;10.096;2023-07-13T02:26:33;23.95;;;8.48;;
73550;SDS011;61816;53.582;10.096;2023-07-13T02:28:59;24.02;;;7.97;;
73550;SDS011;61816;53.582;10.096;2023-07-13T02:31:24;21.95;;;9.02;;
73550;SDS011;61816;53.582;10.096;2023-07-13T02:33:50;19.45;;;8.57;;
73550;SDS011;61816;53.582;10.096;2023-07-13T02:36:16;19.45;;;8.77;;
73550;SDS011;61816;53.582;10.096;2023-07-13T02:38:41;17.52;;;9.27;;
73550;SDS011;61816;53.582;10.096;2023-07-13T02:41:07;21.50;;;8.93;;
73550;SDS011;61816;53.582;10.096;2023-07-13T02:43:34;14.05;;;9.13;;
73550;SDS011;61816;53.582;10.096;2023-07-13T02:46:00;15.18;;;8.90;;
73550;SDS011;61816;53.582;10.096;2023-07-13T02:50:57;18.85;;;9.48;;
73550;SDS011;61816;53.582;10.096;2023-07-13T02:53:22;19.40;;;10.10;;
73550;SDS011;61816;53.582;10.096;2023-07-13T02:55:47;14.68;;;10.07;;
73550;SDS011;61816;53.582;10.096;2023-07-13T02:58:13;24.05;;;9.73;;
73550;SDS011;61816;53.582;10.096;2023-07-13T03:00:42;18.92;;;9.75;;
73550;SDS011;61816;53.582;10.096;2023-07-13T03:03:08;20.33;;;9.88;;
73550;SDS011;61816;53.582;10.096;2023-07-13T03:05:34;16.27;;;9.52;;
73550;SDS011;61816;53.582;10.096;2023-07-13T03:07:59;19.92;;;10.52;;
73550;SDS011;61816;53.582;10.096;2023-07-13T03:10:25;16.23;;;9.30;;
73550;SDS011;61816;53.582;10.096;2023-07-13T03:12:50;18.58;;;9.77;;
73550;SDS011;61816;53.582;10.096;2023-07-13T03:15:16;16.58;;;9.40;;
73550;SDS011;61816;53.582;10.096;2023-07-13T03:17:41;22.52;;;9.43;;
73550;SDS011;61816;53.582;10.096;2023-07-13T03:20:06;17.30;;;9.43;;
73550;SDS011;61816;53.582;10.096;2023-07-13T03:22:32;14.20;;;8.23;;
73550;SDS011;61816;53.582;10.096;2023-07-13T03:24:58;15.32;;;8.88;;
73550;SDS011;61816;53.582;10.096;2023-07-13T03:27:23;16.65;;;9.13;;
73550;SDS011;61816;53.582;10.096;2023-07-13T03:29:48;25.90;;;10.48;;
73550;SDS011;61816;53.582;10.096;2023-07-13T03:32:14;14.48;;;9.52;;
73550;SDS011;61816;53.582;10.096;2023-07-13T03:34:39;25.30;;;9.68;;
73550;SDS011;61816;53.582;10.096;2023-07-13T03:37:04;25.02;;;9.18;;
73550;SDS011;61816;53.582;10.096;2023-07-13T03:39:30;21.40;;;8.77;;
73550;SDS011;61816;53.582;10.096;2023-07-13T03:41:56;18.10;;;9.00;;
73550;SDS011;61816;53.582;10.096;2023-07-13T03:44:21;30.60;;;10.00;;
73550;SDS011;61816;53.582;10.096;2023-07-13T03:46:46;23.50;;;9.88;;
73550;SDS011;61816;53.582;10.096;2023-07-13T03:49:12;19.23;;;8.90;;
73550;SDS011;61816;53.582;10.096;2023-07-13T03:51:38;15.30;;;8.32;;
73550;SDS011;61816;53.582;10.096;2023-07-13T03:54:03;16.00;;;8.75;;
73550;SDS011;61816;53.582;10.096;2023-07-13T03:56:29;12.70;;;8.02;;
73550;SDS011;61816;53.582;10.096;2023-07-13T03:58:55;11.45;;;7.70;;
73550;SDS011;61816;53.582;10.096;2023-07-13T04:01:22;20.27;;;8.27;;
73550;SDS011;61816;53.582;10.096;2023-07-13T04:03:48;16.48;;;6.95;;
73550;SDS011;61816;53.582;10.096;2023-07-13T04:06:18;18.92;;;7.05;;
73550;SDS011;61816;53.582;10.096;2023-07-13T04:08:50;20.45;;;7.88;;
73550;SDS011;61816;53.582;10.096;2023-07-13T04:11:17;17.52;;;7.07;;
73550;SDS011;61816;53.582;10.096;2023-07-13T04:13:44;13.85;;;7.13;;
73550;SDS011;61816;53.582;10.096;2023-07-13T04:16:09;11.27;;;7.43;;
73550;SDS011;61816;53.582;10.096;2023-07-13T04:18:35;14.20;;;7.25;;
73550;SDS011;61816;53.582;10.096;2023-07-13T04:21:00;18.08;;;6.60;;
73550;SDS011;61816;53.582;10.096;2023-07-13T04:23:25;20.17;;;6.47;;
73550;SDS011;61816;53.582;10.096;2023-07-13T04:25:51;16.98;;;6.35;;
73550;SDS011;61816;53.582;10.096;2023-07-13T04:28:18;13.35;;;5.80;;
73550;SDS011;61816;53.582;10.096;2023-07-13T04:30:45;16.30;;;5.80;;
73550;SDS011;61816;53.582;10.096;2023-07-13T04:33:10;18.08;;;6.85;;
73550;SDS011;61816;53.582;10.096;2023-07-13T04:35:36;12.90;;;5.47;;
73550;SDS011;61816;53.582;10.096;2023-07-13T04:43:31;24.80;;;6.53;;
73550;SDS011;61816;53.582;10.096;2023-07-13T04:45:57;15.40;;;5.70;;
73550;SDS011;61816;53.582;10.096;2023-07-13T04:48:28;14.95;;;6.43;;
73550;SDS011;61816;53.582;10.096;2023-07-13T04:50:55;16.27;;;6.35;;
73550;SDS011;61816;53.582;10.096;2023-07-13T04:53:21;12.00;;;5.65;;
73550;SDS011;61816;53.582;10.096;2023-07-13T04:55:47;12.98;;;6.05;;
73550;SDS011;61816;53.582;10.096;2023-07-13T04:58:12;16.95;;;5.38;;
73550;SDS011;61816;53.582;10.096;2023-07-13T05:00:38;19.17;;;5.30;;
73550;SDS011;61816;53.582;10.096;2023-07-13T05:03:04;17.23;;;5.63;;
73550;SDS011;61816;53.582;10.096;2023-07-13T05:05:29;19.58;;;5.80;;
73550;SDS011;61816;53.582;10.096;2023-07-13T05:07:55;17.45;;;5.35;;
73550;SDS011;61816;53.582;10.096;2023-07-13T05:10:20;17.83;;;4.63;;
73550;SDS011;61816;53.582;10.096;2023-07-13T05:12:47;14.10;;;5.22;;
73550;SDS011;61816;53.582;10.096;2023-07-13T05:15:12;14.23;;;4.25;;
73550;SDS011;61816;53.582;10.096;2023-07-13T05:17:38;17.20;;;4.35;;
73550;SDS011;61816;53.582;10.096;2023-07-13T05:20:07;10.63;;;3.83;;
73550;SDS011;61816;53.582;10.096;2023-07-13T05:22:33;20.70;;;4.50;;
73550;SDS011;61816;53.582;10.096;2023-07-13T05:25:00;20.65;;;4.47;;
73550;SDS011;61816;53.582;10.096;2023-07-13T05:27:26;21.15;;;4.70;;
73550;SDS011;61816;53.582;10.096;2023-07-13T05:29:52;22.20;;;5.38;;
73550;SDS011;61816;53.582;10.096;2023-07-13T05:32:18;18.88;;;4.60;;
73550;SDS011;61816;53.582;10.096;2023-07-13T05:34:43;20.77;;;4.38;;
73550;SDS011;61816;53.582;10.096;2023-07-13T05:37:09;21.55;;;4.95;;
73550;SDS011;61816;53.582;10.096;2023-07-13T05:39:34;23.05;;;5.63;;
73550;SDS011;61816;53.582;10.096;2023-07-13T05:41:59;23.63;;;5.38;;
73550;SDS011;61816;53.582;10.096;2023-07-13T05:44:25;16.60;;;4.10;;
73550;SDS011;61816;53.582;10.096;2023-07-13T05:46:51;27.88;;;5.80;;
73550;SDS011;61816;53.582;10.096;2023-07-13T05:49:16;28.23;;;5.35;;
73550;SDS011;61816;53.582;10.096;2023-07-13T05:51:41;28.90;;;5.68;;
73550;SDS011;61816;53.582;10.096;2023-07-13T05:54:07;27.30;;;4.80;;
73550;SDS011;61816;53.582;10.096;2023-07-13T05:56:32;20.23;;;5.13;;
73550;SDS011;61816;53.582;10.096;2023-07-13T05:58:57;36.20;;;6.43;;
73550;SDS011;61816;53.582;10.096;2023-07-13T06:01:23;23.77;;;5.32;;
73550;SDS011;61816;53.582;10.096;2023-07-13T06:03:48;19.08;;;5.35;;
73550;SDS011;61816;53.582;10.096;2023-07-13T06:06:14;24.52;;;5.20;;
73550;SDS011;61816;53.582;10.096;2023-07-13T06:08:40;41.13;;;5.07;;
73550;SDS011;61816;53.582;10.096;2023-07-13T06:11:11;34.75;;;6.00;;
73550;SDS011;61816;53.582;10.096;2023-07-13T06:13:39;23.30;;;4.97;;
73550;SDS011;61816;53.582;10.096;2023-07-13T06:16:04;17.75;;;5.05;;
73550;SDS011;61816;53.582;10.096;2023-07-13T06:18:31;33.28;;;5.35;;
73550;SDS011;61816;53.582;10.096;2023-07-13T06:20:57;20.75;;;4.72;;
73550;SDS011;61816;53.582;10.096;2023-07-13T06:23:23;16.77;;;4.38;;
73550;SDS011;61816;53.582;10.096;2023-07-13T06:25:49;20.88;;;5.20;;
73550;SDS011;61816;53.582;10.096;2023-07-13T06:28:15;15.57;;;4.68;;
73550;SDS011;61816;53.582;10.096;2023-07-13T06:30:40;22.90;;;5.47;;
73550;SDS011;61816;53.582;10.096;2023-07-13T06:33:05;32.17;;;4.35;;
73550;SDS011;61816;53.582;10.096;2023-07-13T06:35:31;24.00;;;3.83;;
73550;SDS011;61816;53.582;10.096;2023-07-13T06:37:56;23.77;;;5.35;;
73550;SDS011;61816;53.582;10.096;2023-07-13T06:40:22;16.48;;;3.92;;
73550;SDS011;61816;53.582;10.096;2023-07-13T06:42:47;27.75;;;4.75;;
73550;SDS011;61816;53.582;10.096;2023-07-13T06:45:12;28.13;;;5.43;;
73550;SDS011;61816;53.582;10.096;2023-07-13T06:47:38;27.27;;;4.22;;
73550;SDS011;61816;53.582;10.096;2023-07-13T06:50:03;32.28;;;5.97;;
73550;SDS011;61816;53.582;10.096;2023-07-13T06:52:28;28.05;;;5.18;;
73550;SDS011;61816;53.582;10.096;2023-07-13T06:54:54;24.88;;;4.63;;
73550;SDS011;61816;53.582;10.096;2023-07-13T06:57:19;25.88;;;4.80;;
73550;SDS011;61816;53.582;10.096;2023-07-13T06:59:44;26.65;;;4.57;;
73550;SDS011;61816;53.582;10.096;2023-07-13T07:02:10;21.88;;;4.47;;
73550;SDS011;61816;53.582;10.096;2023-07-13T07:04:36;16.80;;;3.83;;
73550;SDS011;61816;53.582;10.096;2023-07-13T07:07:01;15.77;;;4.15;;
73550;SDS011;61816;53.582;10.096;2023-07-13T07:09:26;19.40;;;4.22;;
73550;SDS011;61816;53.582;10.096;2023-07-13T07:11:52;38.78;;;4.68;;
73550;SDS011;61816;53.582;10.096;2023-07-13T07:14:17;31.15;;;5.28;;
73550;SDS011;61816;53.582;10.096;2023-07-13T07:16:43;17.45;;;4.93;;
73550;SDS011;61816;53.582;10.096;2023-07-13T07:19:08;20.88;;;4.72;;
73550;SDS011;61816;53.582;10.096;2023-07-13T07:21:33;26.25;;;5.18;;
73550;SDS011;61816;53.582;10.096;2023-07-13T07:23:59;24.55;;;3.97;;
73550;SDS011;61816;53.582;10.096;2023-07-13T07:26:25;22.23;;;4.93;;
73550;SDS011;61816;53.582;10.096;2023-07-13T07:28:50;20.17;;;4.03;;
73550;SDS011;61816;53.582;10.096;2023-07-13T07:31:16;23.13;;;4.53;;
73550;SDS011;61816;53.582;10.096;2023-07-13T07:33:41;21.75;;;4.88;;
73550;SDS011;61816;53.582;10.096;2023-07-13T07:36:06;26.15;;;5.07;;
73550;SDS011;61816;53.582;10.096;2023-07-13T07:38:32;19.88;;;4.00;;
73550;SDS011;61816;53.582;10.096;2023-07-13T07:40:57;16.67;;;4.03;;
73550;SDS011;61816;53.582;10.096;2023-07-13T07:43:23;25.00;;;5.05;;
73550;SDS011;61816;53.582;10.096;2023-07-13T07:45:48;25.48;;;4.65;;
73550;SDS011;61816;53.582;10.096;2023-07-13T07:48:13;22.15;;;4.85;;
73550;SDS011;61816;53.582;10.096;2023-07-13T07:50:39;23.50;;;4.72;;
73550;SDS011;61816;53.582;10.096;2023-07-13T07:53:05;27.55;;;4.57;;
73550;SDS011;61816;53.582;10.096;2023-07-13T07:55:35;16.63;;;4.85;;
73550;SDS011;61816;53.582;10.096;2023-07-13T07:58:01;17.70;;;4.47;;
73550;SDS011;61816;53.582;10.096;2023-07-13T08:00:26;22.17;;;4.43;;
73550;SDS011;61816;53.582;10.096;2023-07-13T08:02:54;23.02;;;4.25;;
73550;SDS011;61816;53.582;10.096;2023-07-13T08:05:19;19.73;;;3.67;;
73550;SDS011;61816;53.582;10.096;2023-07-13T08:07:45;22.67;;;3.50;;
73550;SDS011;61816;53.582;10.096;2023-07-13T08:10:10;21.88;;;5.18;;
73550;SDS011;61816;53.582;10.096;2023-07-13T08:12:39;18.75;;;3.85;;
73550;SDS011;61816;53.582;10.096;2023-07-13T08:15:05;12.05;;;2.72;;
73550;SDS011;61816;53.582;10.096;2023-07-13T08:17:34;14.20;;;3.47;;
73550;SDS011;61816;53.582;10.096;2023-07-13T08:19:59;19.92;;;3.65;;
73550;SDS011;61816;53.582;10.096;2023-07-13T08:22:24;27.90;;;2.90;;
73550;SDS011;61816;53.582;10.096;2023-07-13T08:24:50;15.90;;;3.25;;
73550;SDS011;61816;53.582;10.096;2023-07-13T08:27:21;23.30;;;3.37;;
73550;SDS011;61816;53.582;10.096;2023-07-13T08:29:47;17.92;;;4.40;;
73550;SDS011;61816;53.582;10.096;2023-07-13T08:32:13;15.20;;;3.45;;
73550;SDS011;61816;53.582;10.096;2023-07-13T08:34:39;18.95;;;3.47;;
73550;SDS011;61816;53.582;10.096;2023-07-13T08:37:05;15.38;;;3.17;;
73550;SDS011;61816;53.582;10.096;2023-07-13T08:39:31;17.80;;;3.22;;
73550;SDS011;61816;53.582;10.096;2023-07-13T08:41:58;17.80;;;3.78;;
73550;SDS011;61816;53.582;10.096;2023-07-13T08:44:39;16.17;;;3.53;;
73550;SDS011;61816;53.582;10.096;2023-07-13T08:47:07;19.52;;;3.17;;
73550;SDS011;61816;53.582;10.096;2023-07-13T08:49:35;22.23;;;4.35;;
73550;SDS011;61816;53.582;10.096;2023-07-13T08:52:03;17.73;;;4.72;;
73550;SDS011;61816;53.582;10.096;2023-07-13T08:54:44;19.43;;;3.80;;
73550;SDS011;61816;53.582;10.096;2023-07-13T08:57:15;15.98;;;3.28;;
73550;SDS011;61816;53.582;10.096;2023-07-13T08:59:44;15.07;;;3.90;;
73550;SDS011;61816;53.582;10.096;2023-07-13T09:02:18;15.77;;;3.72;;
73550;SDS011;61816;53.582;10.096;2023-07-13T09:07:34;15.45;;;3.97;;
73550;SDS011;61816;53.582;10.096;2023-07-13T09:15:53;9.88;;;3.45;;
73550;SDS011;61816;53.582;10.096;2023-07-13T09:21:15;10.18;;;2.80;;
73550;SDS011;61816;53.582;10.096;2023-07-13T09:23:46;12.98;;;3.63;;
73550;SDS011;61816;53.582;10.096;2023-07-13T09:26:14;11.30;;;3.40;;
73550;SDS011;61816;53.582;10.096;2023-07-13T09:28:44;13.15;;;3.63;;
73550;SDS011;61816;53.582;10.096;2023-07-13T09:31:14;17.67;;;2.88;;
73550;SDS011;61816;53.582;10.096;2023-07-13T09:33:42;10.98;;;2.67;;
73550;SDS011;61816;53.582;10.096;2023-07-13T09:36:16;11.23;;;3.10;;
73550;SDS011;61816;53.582;10.096;2023-07-13T09:38:44;14.27;;;2.72;;
73550;SDS011;61816;53.582;10.096;2023-07-13T09:41:19;15.02;;;4.13;;
73550;SDS011;61816;53.582;10.096;2023-07-13T09:44:08;14.88;;;3.85;;
73550;SDS011;61816;53.582;10.096;2023-07-13T09:46:39;12.77;;;3.17;;
73550;SDS011;61816;53.582;10.096;2023-07-13T09:49:28;18.77;;;3.00;;
73550;SDS011;61816;53.582;10.096;2023-07-13T09:52:04;14.05;;;3.25;;
73550;SDS011;61816;53.582;10.096;2023-07-13T09:54:35;19.20;;;3.88;;
73550;SDS011;61816;53.582;10.096;2023-07-13T09:57:02;14.10;;;3.22;;
73550;SDS011;61816;53.582;10.096;2023-07-13T09:59:33;11.40;;;2.78;;
73550;SDS011;61816;53.582;10.096;2023-07-13T10:02:01;12.43;;;3.08;;
73550;SDS011;61816;53.582;10.096;2023-07-13T10:04:30;7.45;;;2.63;;
73550;SDS011;61816;53.582;10.096;2023-07-13T10:07:04;11.85;;;3.42;;
73550;SDS011;61816;53.582;10.096;2023-07-13T10:09:32;18.38;;;3.63;;
73550;SDS011;61816;53.582;10.096;2023-07-13T10:11:57;11.98;;;3.47;;
73550;SDS011;61816;53.582;10.096;2023-07-13T10:14:23;13.80;;;3.35;;
73550;SDS011;61816;53.582;10.096;2023-07-13T10:16:51;12.40;;;2.60;;
73550;SDS011;61816;53.582;10.096;2023-07-13T10:19:23;14.02;;;3.00;;
73550;SDS011;61816;53.582;10.096;2023-07-13T10:22:02;12.43;;;3.33;;
73550;SDS011;61816;53.582;10.096;2023-07-13T10:24:43;13.07;;;3.20;;
73550;SDS011;61816;53.582;10.096;2023-07-13T10:29:43;12.38;;;3.15;;
73550;SDS011;61816;53.582;10.096;2023-07-13T10:32:13;14.05;;;2.88;;
73550;SDS011;61816;53.582;10.096;2023-07-13T10:34:43;16.73;;;3.88;;
73550;SDS011;61816;53.582;10.096;2023-07-13T10:37:16;11.32;;;2.72;;
73550;SDS011;61816;53.582;10.096;2023-07-13T10:39:45;10.13;;;2.50;;
73550;SDS011;61816;53.582;10.096;2023-07-13T10:42:13;9.55;;;2.78;;
73550;SDS011;61816;53.582;10.096;2023-07-13T10:44:44;9.85;;;2.47;;
73550;SDS011;61816;53.582;10.096;2023-07-13T10:47:11;12.30;;;2.70;;
73550;SDS011;61816;53.582;10.096;2023-07-13T10:49:40;9.15;;;2.28;;
73550;SDS011;61816;53.582;10.096;2023-07-13T10:55:29;5.47;;;2.55;;
73550;SDS011;61816;53.582;10.096;2023-07-13T11:00:57;12.00;;;3.20;;
73550;SDS011;61816;53.582;10.096;2023-07-13T11:03:28;11.63;;;2.88;;
73550;SDS011;61816;53.582;10.096;2023-07-13T11:06:07;7.72;;;2.42;;
73550;SDS011;61816;53.582;10.096;2023-07-13T11:18:46;6.68;;;1.98;;
73550;SDS011;61816;53.582;10.096;2023-07-13T11:21:20;6.97;;;2.33;;
73550;SDS011;61816;53.582;10.096;2023-07-13T11:23:52;13.27;;;3.13;;
73550;SDS011;61816;53.582;10.096;2023-07-13T11:31:57;10.18;;;2.40;;
73550;SDS011;61816;53.582;10.096;2023-07-13T11:34:31;7.03;;;2.13;;
73550;SDS011;61816;53.582;10.096;2023-07-13T11:37:01;6.25;;;2.70;;
73550;SDS011;61816;53.582;10.096;2023-07-13T11:39:29;6.57;;;2.30;;
73550;SDS011;61816;53.582;10.096;2023-07-13T11:41:58;12.80;;;2.53;;
73550;SDS011;61816;53.582;10.096;2023-07-13T11:44:28;10.63;;;2.50;;
73550;SDS011;61816;53.582;10.096;2023-07-13T11:46:56;10.38;;;2.10;;
73550;SDS011;61816;53.582;10.096;2023-07-13T11:49:26;7.70;;;2.45;;
73550;SDS011;61816;53.582;10.096;2023-07-13T11:51:52;8.15;;;2.25;;
73550;SDS011;61816;53.582;10.096;2023-07-13T11:54:26;6.00;;;2.33;;
73550;SDS011;61816;53.582;10.096;2023-07-13T11:56:58;6.38;;;2.10;;
73550;SDS011;61816;53.582;10.096;2023-07-13T11:59:26;9.48;;;2.90;;
73550;SDS011;61816;53.582;10.096;2023-07-13T12:01:54;7.95;;;2.08;;
73550;SDS011;61816;53.582;10.096;2023-07-13T12:04:23;7.10;;;2.78;;
73550;SDS011;61816;53.582;10.096;2023-07-13T12:06:56;11.20;;;1.98;;
73550;SDS011;61816;53.582;10.096;2023-07-13T12:09:25;8.90;;;2.40;;
73550;SDS011;61816;53.582;10.096;2023-07-13T12:11:51;9.68;;;2.47;;
73550;SDS011;61816;53.582;10.096;2023-07-13T12:14:18;6.05;;;1.63;;
73550;SDS011;61816;53.582;10.096;2023-07-13T12:16:47;7.57;;;2.13;;
73550;SDS011;61816;53.582;10.096;2023-07-13T12:19:17;14.15;;;2.55;;
73550;SDS011;61816;53.582;10.096;2023-07-13T12:21:46;12.55;;;2.40;;
73550;SDS011;61816;53.582;10.096;2023-07-13T12:24:19;10.07;;;3.08;;
73550;SDS011;61816;53.582;10.096;2023-07-13T12:26:58;10.65;;;2.78;;
73550;SDS011;61816;53.582;10.096;2023-07-13T12:29:29;16.33;;;3.88;;
73550;SDS011;61816;53.582;10.096;2023-07-13T12:31:57;27.00;;;4.95;;
73550;SDS011;61816;53.582;10.096;2023-07-13T12:34:23;15.95;;;4.10;;
73550;SDS011;61816;53.582;10.096;2023-07-13T12:36:58;19.05;;;4.72;;
73550;SDS011;61816;53.582;10.096;2023-07-13T12:44:45;14.73;;;3.83;;
73550;SDS011;61816;53.582;10.096;2023-07-13T12:47:12;16.77;;;4.78;;
73550;SDS011;61816;53.582;10.096;2023-07-13T12:49:45;10.90;;;3.47;;
73550;SDS011;61816;53.582;10.096;2023-07-13T12:52:22;10.40;;;3.58;;
73550;SDS011;61816;53.582;10.096;2023-07-13T12:54:59;10.38;;;3.97;;
73550;SDS011;61816;53.582;10.096;2023-07-13T12:57:30;12.10;;;3.72;;
73550;SDS011;61816;53.582;10.096;2023-07-13T12:59:56;8.85;;;3.40;;
73550;SDS011;61816;53.582;10.096;2023-07-13T13:02:29;13.90;;;3.45;;
73550;SDS011;61816;53.582;10.096;2023-07-13T13:04:56;15.45;;;3.85;;
73550;SDS011;61816;53.582;10.096;2023-07-13T13:07:23;13.18;;;4.03;;
73550;SDS011;61816;53.582;10.096;2023-07-13T13:09:49;12.18;;;3.70;;
73550;SDS011;61816;53.582;10.096;2023-07-13T13:12:14;14.02;;;4.18;;
73550;SDS011;61816;53.582;10.096;2023-07-13T13:14:40;9.27;;;4.32;;
73550;SDS011;61816;53.582;10.096;2023-07-13T13:17:14;11.40;;;3.80;;
73550;SDS011;61816;53.582;10.096;2023-07-13T13:19:44;12.10;;;3.72;;
73550;SDS011;61816;53.582;10.096;2023-07-13T13:22:10;13.57;;;4.07;;
73550;SDS011;61816;53.582;10.096;2023-07-13T13:24:35;11.90;;;3.30;;
73550;SDS011;61816;53.582;10.096;2023-07-13T13:27:01;10.70;;;2.75;;
73550;SDS011;61816;53.582;10.096;2023-07-13T13:29:27;7.13;;;2.72;;
73550;SDS011;61816;53.582;10.096;2023-07-13T13:31:53;7.63;;;3.08;;
73550;SDS011;61816;53.582;10.096;2023-07-13T13:34:20;7.32;;;2.65;;
73550;SDS011;61816;53.582;10.096;2023-07-13T13:36:50;9.27;;;2.65;;
73550;SDS011;61816;53.582;10.096;2023-07-13T13:39:24;8.15;;;2.83;;
73550;SDS011;61816;53.582;10.096;2023-07-13T13:41:54;6.95;;;2.10;;
73550;SDS011;61816;53.582;10.096;2023-07-13T13:44:20;10.45;;;2.03;;
73550;SDS011;61816;53.582;10.096;2023-07-13T13:46:53;10.80;;;2.60;;
73550;SDS011;61816;53.582;10.096;2023-07-13T13:49:25;7.80;;;2.60;;
73550;SDS011;61816;53.582;10.096;2023-07-13T13:51:52;7.82;;;2.25;;
73550;SDS011;61816;53.582;10.096;2023-07-13T13:54:19;7.40;;;2.17;;
73550;SDS011;61816;53.582;10.096;2023-07-13T13:56:47;12.25;;;5.57;;
73550;SDS011;61816;53.582;10.096;2023-07-13T13:59:14;8.38;;;2.78;;
73550;SDS011;61816;53.582;10.096;2023-07-13T14:01:40;5.95;;;2.58;;
73550;SDS011;61816;53.582;10.096;2023-07-13T14:04:13;6.17;;;2.70;;
73550;SDS011;61816;53.582;10.096;2023-07-13T14:06:41;5.93;;;2.10;;
73550;SDS011;61816;53.582;10.096;2023-07-13T14:09:08;8.15;;;2.67;;
73550;SDS011;61816;53.582;10.096;2023-07-13T14:11:36;7.15;;;2.75;;
73550;SDS011;61816;53.582;10.096;2023-07-13T14:14:02;7.07;;;2.33;;
73550;SDS011;61816;53.582;10.096;2023-07-13T14:16:30;10.18;;;2.40;;
73550;SDS011;61816;53.582;10.096;2023-07-13T14:18:57;7.75;;;2.45;;
73550;SDS011;61816;53.582;10.096;2023-07-13T14:21:25;10.23;;;2.60;;
73550;SDS011;61816;53.582;10.096;2023-07-13T14:23:53;6.07;;;2.33;;
73550;SDS011;61816;53.582;10.096;2023-07-13T14:26:19;8.20;;;2.45;;
73550;SDS011;61816;53.582;10.096;2023-07-13T14:28:50;5.32;;;2.55;;
73550;SDS011;61816;53.582;10.096;2023-07-13T14:33:44;8.90;;;2.35;;
73550;SDS011;61816;53.582;10.096;2023-07-13T14:36:29;8.43;;;2.15;;
73550;SDS011;61816;53.582;10.096;2023-07-13T14:39:00;7.03;;;2.33;;
73550;SDS011;61816;53.582;10.096;2023-07-13T14:41:36;4.65;;;2.00;;
73550;SDS011;61816;53.582;10.096;2023-07-13T14:44:01;4.82;;;2.33;;
73550;SDS011;61816;53.582;10.096;2023-07-13T14:46:30;9.02;;;2.28;;
73550;SDS011;61816;53.582;10.096;2023-07-13T14:49:02;10.27;;;2.45;;
73550;SDS011;61816;53.582;10.096;2023-07-13T14:51:31;5.20;;;2.28;;
73550;SDS011;61816;53.582;10.096;2023-07-13T14:54:02;6.60;;;2.30;;
73550;SDS011;61816;53.582;10.096;2023-07-13T14:56:28;6.30;;;2.53;;
73550;SDS011;61816;53.582;10.096;2023-07-13T14:58:53;3.97;;;2.22;;
73550;SDS011;61816;53.582;10.096;2023-07-13T15:01:18;14.30;;;2.22;;
73550;SDS011;61816;53.582;10.096;2023-07-13T15:03:47;5.03;;;2.38;;
73550;SDS011;61816;53.582;10.096;2023-07-13T15:06:15;6.63;;;2.58;;
73550;SDS011;61816;53.582;10.096;2023-07-13T15:08:41;5.97;;;2.20;;
73550;SDS011;61816;53.582;10.096;2023-07-13T15:11:07;7.00;;;2.10;;
73550;SDS011;61816;53.582;10.096;2023-07-13T15:13:33;7.03;;;2.53;;
73550;SDS011;61816;53.582;10.096;2023-07-13T15:15:59;10.75;;;2.83;;
73550;SDS011;61816;53.582;10.096;2023-07-13T15:18:25;8.52;;;2.30;;